sensor_id;sensor_type;location;lat;lon;timestamp;pressure;altitude;pressure_sealevel;temperature;humidity
41254;BME280;26987;59.928;30.306;2023-04-28T00:00:51;101104.31;;;4.11;100.00
41254;BME280;26987;59.928;30.306;2023-04-28T00:03:19;101101.69;;;4.11;100.00
41254;BME280;26987;59.928;30.306;2023-04-28T00:05:48;101091.06;;;4.11;100.00
41254;BME280;26987;59.928;30.306;2023-04-28T00:08:16;101104.72;;;4.16;100.00
41254;BME280;26987;59.928;30.306;2023-04-28T00:10:44;101110.72;;;4.19;100.00
41254;BME280;26987;59.928;30.306;2023-04-28T00:13:12;101111.69;;;4.18;100.00
41254;BME280;26987;59.928;30.306;2023-04-28T00:15:39;101114.03;;;4.21;100.00
41254;BME280;26987;59.928;30.306;2023-04-28T00:18:07;101110.38;;;4.22;100.00
41254;BME280;26987;59.928;30.306;2023-04-28T00:20:35;101112.72;;;4.25;100.00
41254;BME280;26987;59.928;30.306;2023-04-28T00:23:04;101108.41;;;4.24;100.00
41254;BME280;26987;59.928;30.306;2023-04-28T00:25:32;101106.75;;;4.23;100.00
41254;BME280;26987;59.928;30.306;2023-04-28T00:28:00;101096.06;;;4.14;100.00
41254;BME280;26987;59.928;30.306;2023-04-28T00:30:28;101111.69;;;4.18;100.00
41254;BME280;26987;59.928;30.306;2023-04-28T00:32:56;101119.19;;;4.22;100.00
41254;BME280;26987;59.928;30.306;2023-04-28T00:35:24;101084.06;;;4.02;100.00
41254;BME280;26987;59.928;30.306;2023-04-28T00:37:52;101122.00;;;4.21;100.00
41254;BME280;26987;59.928;30.306;2023-04-28T00:40:21;101115.31;;;4.16;100.00
41254;BME280;26987;59.928;30.306;2023-04-28T00:42:50;101128.28;;;4.20;100.00
41254;BME280;26987;59.928;30.306;2023-04-28T00:45:17;101125.03;;;4.26;100.00
41254;BME280;26987;59.928;30.306;2023-04-28T00:47:45;101121.06;;;4.30;100.00
41254;BME280;26987;59.928;30.306;2023-04-28T00:50:14;101127.72;;;4.34;100.00
41254;BME280;26987;59.928;30.306;2023-04-28T00:52:43;101113.09;;;4.30;100.00
41254;BME280;26987;59.928;30.306;2023-04-28T00:55:14;101118.50;;;4.47;100.00
41254;BME280;26987;59.928;30.306;2023-04-28T00:57:44;101112.34;;;4.46;100.00
41254;BME280;26987;59.928;30.306;2023-04-28T01:00:14;101112.34;;;4.46;100.00
41254;BME280;26987;59.928;30.306;2023-04-28T01:02:42;101114.91;;;4.56;100.00
41254;BME280;26987;59.928;30.306;2023-04-28T01:05:10;101114.28;;;4.62;100.00
41254;BME280;26987;59.928;30.306;2023-04-28T01:07:39;101098.66;;;4.59;100.00
41254;BME280;26987;59.928;30.306;2023-04-28T01:10:09;101113.63;;;4.69;100.00
41254;BME280;26987;59.928;30.306;2023-04-28T01:12:37;101096.97;;;4.58;100.00
41254;BME280;26987;59.928;30.306;2023-04-28T01:15:14;101105.88;;;4.75;100.00
41254;BME280;26987;59.928;30.306;2023-04-28T01:17:44;101105.19;;;4.73;100.00
41254;BME280;26987;59.928;30.306;2023-04-28T01:20:13;101121.81;;;4.75;100.00
41254;BME280;26987;59.928;30.306;2023-04-28T01:22:41;101118.63;;;4.72;100.00
41254;BME280;26987;59.928;30.306;2023-04-28T01:25:10;101111.97;;;4.67;100.00
41254;BME280;26987;59.928;30.306;2023-04-28T01:27:38;101118.47;;;4.73;100.00
41254;BME280;26987;59.928;30.306;2023-04-28T01:30:07;101113.38;;;4.80;100.00
41254;BME280;26987;59.928;30.306;2023-04-28T01:32:35;101116.03;;;4.80;100.00
41254;BME280;26987;59.928;30.306;2023-04-28T01:35:04;101112.38;;;4.81;100.00
41254;BME280;26987;59.928;30.306;2023-04-28T01:37:34;101114.72;;;4.84;100.00
41254;BME280;26987;59.928;30.306;2023-04-28T01:40:02;101117.38;;;4.84;100.00
41254;BME280;26987;59.928;30.306;2023-04-28T01:42:32;101127.38;;;4.90;100.00
41254;BME280;26987;59.928;30.306;2023-04-28T01:45:01;101122.91;;;4.91;100.00
41254;BME280;26987;59.928;30.306;2023-04-28T01:47:31;101125.38;;;4.92;100.00
41254;BME280;26987;59.928;30.306;2023-04-28T01:49:59;101127.38;;;4.90;100.00
41254;BME280;26987;59.928;30.306;2023-04-28T01:52:28;101125.72;;;4.89;100.00
41254;BME280;26987;59.928;30.306;2023-04-28T01:54:57;101120.88;;;4.85;100.00
41254;BME280;26987;59.928;30.306;2023-04-28T01:57:25;101123.53;;;4.85;100.00
41254;BME280;26987;59.928;30.306;2023-04-28T01:59:57;101123.53;;;4.85;100.00
41254;BME280;26987;59.928;30.306;2023-04-28T02:02:26;101114.88;;;4.83;100.00
41254;BME280;26987;59.928;30.306;2023-04-28T02:04:54;101128.84;;;4.85;99.58
41254;BME280;26987;59.928;30.306;2023-04-28T02:07:23;101133.47;;;4.83;99.01
41254;BME280;26987;59.928;30.306;2023-04-28T02:09:51;101128.31;;;4.81;99.06
41254;BME280;26987;59.928;30.306;2023-04-28T02:12:19;101131.81;;;4.82;99.77
41254;BME280;26987;59.928;30.306;2023-04-28T02:14:47;101137.78;;;4.84;99.04
41254;BME280;26987;59.928;30.306;2023-04-28T02:17:18;101134.97;;;4.85;98.96
41254;BME280;26987;59.928;30.306;2023-04-28T02:19:45;101133.31;;;4.84;99.31
41254;BME280;26987;59.928;30.306;2023-04-28T02:22:13;101132.16;;;4.87;98.83
41254;BME280;26987;59.928;30.306;2023-04-28T02:24:41;101135.81;;;4.86;99.53
41254;BME280;26987;59.928;30.306;2023-04-28T02:27:09;101127.53;;;4.89;99.19
41254;BME280;26987;59.928;30.306;2023-04-28T02:29:37;101124.88;;;4.89;99.47
41254;BME280;26987;59.928;30.306;2023-04-28T02:32:05;101124.03;;;4.88;99.26
41254;BME280;26987;59.928;30.306;2023-04-28T02:34:34;101132.69;;;4.90;99.95
41254;BME280;26987;59.928;30.306;2023-04-28T02:37:02;101141.16;;;4.94;100.00
41254;BME280;26987;59.928;30.306;2023-04-28T02:39:30;101132.38;;;4.94;99.92
41254;BME280;26987;59.928;30.306;2023-04-28T02:41:58;101136.69;;;4.95;99.34
41254;BME280;26987;59.928;30.306;2023-04-28T02:44:26;101127.53;;;4.97;99.34
41254;BME280;26987;59.928;30.306;2023-04-28T02:46:54;101128.38;;;4.98;99.61
41254;BME280;26987;59.928;30.306;2023-04-28T02:49:21;101129.22;;;4.98;99.07
41254;BME280;26987;59.928;30.306;2023-04-28T02:51:51;101126.03;;;4.95;99.08
41254;BME280;26987;59.928;30.306;2023-04-28T02:54:19;101137.00;;;4.91;99.03
41254;BME280;26987;59.928;30.306;2023-04-28T02:56:53;101129.72;;;4.94;99.72
41254;BME280;26987;59.928;30.306;2023-04-28T02:59:21;101120.72;;;4.86;99.67
41254;BME280;26987;59.928;30.306;2023-04-28T03:01:49;101144.34;;;4.98;99.61
41254;BME280;26987;59.928;30.306;2023-04-28T03:04:18;101135.84;;;4.94;99.66
41254;BME280;26987;59.928;30.306;2023-04-28T03:06:46;101151.00;;;5.02;100.00
41254;BME280;26987;59.928;30.306;2023-04-28T03:09:16;101136.72;;;5.03;100.00
41254;BME280;26987;59.928;30.306;2023-04-28T03:11:44;101130.41;;;5.04;99.61
41254;BME280;26987;59.928;30.306;2023-04-28T03:14:12;101129.41;;;5.05;99.65
41254;BME280;26987;59.928;30.306;2023-04-28T03:16:40;101130.41;;;5.04;99.53
41254;BME280;26987;59.928;30.306;2023-04-28T03:19:08;101102.44;;;4.83;98.63
41254;BME280;26987;59.928;30.306;2023-04-28T03:21:36;101133.06;;;5.04;99.78
41254;BME280;26987;59.928;30.306;2023-04-28T03:24:04;101127.75;;;5.04;100.00
41254;BME280;26987;59.928;30.306;2023-04-28T03:26:34;101136.75;;;5.11;99.29
41254;BME280;26987;59.928;30.306;2023-04-28T03:29:03;101141.75;;;5.14;99.08
41254;BME280;26987;59.928;30.306;2023-04-28T03:31:31;101149.72;;;5.14;99.51
41254;BME280;26987;59.928;30.306;2023-04-28T03:33:58;101145.09;;;5.16;99.29
41254;BME280;26987;59.928;30.306;2023-04-28T03:36:26;101148.75;;;5.24;99.70
41254;BME280;26987;59.928;30.306;2023-04-28T03:38:57;101142.81;;;5.30;98.92
41254;BME280;26987;59.928;30.306;2023-04-28T03:41:25;101140.78;;;5.32;99.37
41254;BME280;26987;59.928;30.306;2023-04-28T03:44:12;101161.47;;;5.47;98.44
41254;BME280;26987;59.928;30.306;2023-04-28T03:46:48;101157.47;;;5.51;98.33
41254;BME280;26987;59.928;30.306;2023-04-28T03:49:17;101154.50;;;5.54;97.80
41254;BME280;26987;59.928;30.306;2023-04-28T03:51:45;101154.50;;;5.54;98.06
41254;BME280;26987;59.928;30.306;2023-04-28T03:54:14;101157.47;;;5.59;97.81
41254;BME280;26987;59.928;30.306;2023-04-28T03:56:43;101161.81;;;5.60;96.70
41254;BME280;26987;59.928;30.306;2023-04-28T03:59:12;101167.47;;;5.65;96.19
41254;BME280;26987;59.928;30.306;2023-04-28T04:01:40;101156.81;;;5.65;95.97
41254;BME280;26987;59.928;30.306;2023-04-28T04:04:08;101161.31;;;5.65;96.11
41254;BME280;26987;59.928;30.306;2023-04-28T04:06:36;101162.47;;;5.62;95.89
41254;BME280;26987;59.928;30.306;2023-04-28T04:09:03;101167.63;;;5.64;96.42
41254;BME280;26987;59.928;30.306;2023-04-28T04:11:33;101170.28;;;5.64;96.24
41254;BME280;26987;59.928;30.306;2023-04-28T04:14:00;101168.81;;;5.61;95.37
41254;BME280;26987;59.928;30.306;2023-04-28T04:16:30;101170.47;;;5.62;96.42
41254;BME280;26987;59.928;30.306;2023-04-28T04:18:59;101171.63;;;5.60;95.94
41254;BME280;26987;59.928;30.306;2023-04-28T04:21:40;101169.44;;;5.63;95.75
41254;BME280;26987;59.928;30.306;2023-04-28T04:24:08;101172.78;;;5.65;95.09
41254;BME280;26987;59.928;30.306;2023-04-28T04:26:37;101172.78;;;5.65;95.11
41254;BME280;26987;59.928;30.306;2023-04-28T04:29:24;101171.47;;;5.70;95.47
41254;BME280;26987;59.928;30.306;2023-04-28T04:31:53;101172.16;;;5.72;95.06
41254;BME280;26987;59.928;30.306;2023-04-28T04:34:21;101169.97;;;5.67;94.75
41254;BME280;26987;59.928;30.306;2023-04-28T04:36:49;101177.47;;;5.72;95.03
41254;BME280;26987;59.928;30.306;2023-04-28T04:39:17;101186.47;;;5.71;95.59
41254;BME280;26987;59.928;30.306;2023-04-28T04:41:47;101180.28;;;5.70;94.99
41254;BME280;26987;59.928;30.306;2023-04-28T04:44:41;101185.59;;;5.70;95.09
41254;BME280;26987;59.928;30.306;2023-04-28T04:47:17;101190.63;;;5.98;95.83
41254;BME280;26987;59.928;30.306;2023-04-28T04:49:47;101155.81;;;5.66;94.67
41254;BME280;26987;59.928;30.306;2023-04-28T04:52:15;101192.28;;;5.91;94.64
41254;BME280;26987;59.928;30.306;2023-04-28T04:54:44;101184.66;;;5.96;94.55
41254;BME280;26987;59.928;30.306;2023-04-28T04:57:14;101182.31;;;6.01;94.11
41254;BME280;26987;59.928;30.306;2023-04-28T05:00:00;101192.16;;;6.01;93.68
41254;BME280;26987;59.928;30.306;2023-04-28T05:02:30;101189.97;;;5.96;93.27
41254;BME280;26987;59.928;30.306;2023-04-28T05:04:58;101187.16;;;5.98;93.53
41254;BME280;26987;59.928;30.306;2023-04-28T05:07:26;101202.28;;;5.97;93.58
41254;BME280;26987;59.928;30.306;2023-04-28T05:09:56;101193.81;;;6.02;92.93
41254;BME280;26987;59.928;30.306;2023-04-28T05:12:24;101195.16;;;6.06;92.99
41254;BME280;26987;59.928;30.306;2023-04-28T05:14:52;101190.84;;;6.13;92.98
41254;BME280;26987;59.928;30.306;2023-04-28T05:17:21;101197.84;;;6.14;92.29
41254;BME280;26987;59.928;30.306;2023-04-28T05:19:50;101206.66;;;6.23;93.02
41254;BME280;26987;59.928;30.306;2023-04-28T05:22:18;101200.50;;;6.23;92.34
41254;BME280;26987;59.928;30.306;2023-04-28T05:24:46;101195.00;;;6.24;92.06
41254;BME280;26987;59.928;30.306;2023-04-28T05:27:14;101196.50;;;6.27;92.13
41254;BME280;26987;59.928;30.306;2023-04-28T05:29:42;101202.66;;;6.27;91.48
41254;BME280;26987;59.928;30.306;2023-04-28T05:32:11;101203.66;;;6.35;92.16
41254;BME280;26987;59.928;30.306;2023-04-28T05:34:39;101204.47;;;6.43;91.79
41254;BME280;26987;59.928;30.306;2023-04-28T05:37:08;101207.47;;;6.40;91.34
41254;BME280;26987;59.928;30.306;2023-04-28T05:39:39;101183.69;;;6.30;91.04
41254;BME280;26987;59.928;30.306;2023-04-28T05:42:07;101210.16;;;6.49;90.08
41254;BME280;26987;59.928;30.306;2023-04-28T05:44:35;101206.81;;;6.55;89.98
41254;BME280;26987;59.928;30.306;2023-04-28T05:47:03;101208.63;;;6.63;89.44
41254;BME280;26987;59.928;30.306;2023-04-28T05:49:31;101211.13;;;6.64;89.21
41254;BME280;26987;59.928;30.306;2023-04-28T05:51:59;101213.44;;;6.67;88.53
41254;BME280;26987;59.928;30.306;2023-04-28T05:54:29;101214.41;;;6.75;88.43
41254;BME280;26987;59.928;30.306;2023-04-28T05:56:58;101221.09;;;6.79;88.05
41254;BME280;26987;59.928;30.306;2023-04-28T05:59:26;101218.28;;;6.80;87.32
41254;BME280;26987;59.928;30.306;2023-04-28T06:01:57;101217.44;;;6.80;87.16
41254;BME280;26987;59.928;30.306;2023-04-28T06:04:25;101215.44;;;6.82;88.11
41254;BME280;26987;59.928;30.306;2023-04-28T06:06:53;101219.72;;;6.91;87.62
41254;BME280;26987;59.928;30.306;2023-04-28T06:09:20;101223.22;;;6.92;86.87
41254;BME280;26987;59.928;30.306;2023-04-28T06:11:50;101216.06;;;6.92;87.05
41254;BME280;26987;59.928;30.306;2023-04-28T06:14:18;101213.41;;;6.92;87.33
41254;BME280;26987;59.928;30.306;2023-04-28T06:16:46;101224.88;;;7.01;87.38
41254;BME280;26987;59.928;30.306;2023-04-28T06:19:13;101226.22;;;6.89;87.23
41254;BME280;26987;59.928;30.306;2023-04-28T06:21:44;101224.06;;;6.84;87.32
41254;BME280;26987;59.928;30.306;2023-04-28T06:24:12;101234.41;;;6.87;87.07
41254;BME280;26987;59.928;30.306;2023-04-28T06:26:42;101240.75;;;6.86;86.93
41254;BME280;26987;59.928;30.306;2023-04-28T06:29:11;101239.72;;;6.96;86.83
41254;BME280;26987;59.928;30.306;2023-04-28T06:31:40;101236.34;;;7.02;86.35
41254;BME280;26987;59.928;30.306;2023-04-28T06:34:08;101244.00;;;7.05;85.47
41254;BME280;26987;59.928;30.306;2023-04-28T06:36:36;101252.00;;;7.05;84.86
41254;BME280;26987;59.928;30.306;2023-04-28T06:39:04;101244.06;;;6.97;85.22
41254;BME280;26987;59.928;30.306;2023-04-28T06:41:33;101245.38;;;7.01;85.11
41254;BME280;26987;59.928;30.306;2023-04-28T06:44:03;101249.00;;;7.16;85.25
41254;BME280;26987;59.928;30.306;2023-04-28T06:46:35;101260.13;;;7.20;84.32
41254;BME280;26987;59.928;30.306;2023-04-28T06:49:03;101261.47;;;7.24;84.29
41254;BME280;26987;59.928;30.306;2023-04-28T06:51:31;101258.31;;;7.29;83.28
41254;BME280;26987;59.928;30.306;2023-04-28T06:53:59;101259.09;;;7.38;83.36
41254;BME280;26987;59.928;30.306;2023-04-28T06:56:27;101253.25;;;7.42;82.63
41254;BME280;26987;59.928;30.306;2023-04-28T06:58:56;101258.22;;;7.45;81.93
41254;BME280;26987;59.928;30.306;2023-04-28T07:01:24;101271.22;;;7.49;81.91
41254;BME280;26987;59.928;30.306;2023-04-28T07:03:53;101269.88;;;7.53;82.25
41254;BME280;26987;59.928;30.306;2023-04-28T07:06:21;101275.34;;;7.60;81.78
41254;BME280;26987;59.928;30.306;2023-04-28T07:08:49;101251.88;;;7.47;81.01
41254;BME280;26987;59.928;30.306;2023-04-28T07:11:17;101276.00;;;7.62;81.01
41254;BME280;26987;59.928;30.306;2023-04-28T07:13:45;101278.00;;;7.68;80.86
41254;BME280;26987;59.928;30.306;2023-04-28T07:16:14;101275.75;;;7.80;80.66
41254;BME280;26987;59.928;30.306;2023-04-28T07:18:42;101276.28;;;7.75;80.36
41254;BME280;26987;59.928;30.306;2023-04-28T07:21:11;101276.91;;;7.77;80.67
41254;BME280;26987;59.928;30.306;2023-04-28T07:23:39;101283.78;;;7.80;80.53
41254;BME280;26987;59.928;30.306;2023-04-28T07:26:07;101277.31;;;7.98;80.12
41254;BME280;26987;59.928;30.306;2023-04-28T07:28:35;101284.09;;;8.08;79.07
41254;BME280;26987;59.928;30.306;2023-04-28T07:31:03;101288.59;;;8.31;77.87
41254;BME280;26987;59.928;30.306;2023-04-28T07:33:30;101284.94;;;8.56;76.56
41254;BME280;26987;59.928;30.306;2023-04-28T07:35:58;101284.97;;;8.94;75.39
41254;BME280;26987;59.928;30.306;2023-04-28T07:38:27;101279.34;;;9.19;73.52
41254;BME280;26987;59.928;30.306;2023-04-28T07:40:55;101277.56;;;9.27;72.14
41254;BME280;26987;59.928;30.306;2023-04-28T07:43:23;101292.16;;;9.39;71.70
41254;BME280;26987;59.928;30.306;2023-04-28T07:45:51;101292.34;;;9.38;71.56
41254;BME280;26987;59.928;30.306;2023-04-28T07:48:19;101289.34;;;9.63;70.95
41254;BME280;26987;59.928;30.306;2023-04-28T07:50:47;101300.22;;;9.76;70.04
41254;BME280;26987;59.928;30.306;2023-04-28T07:53:15;101297.09;;;9.88;68.84
41254;BME280;26987;59.928;30.306;2023-04-28T07:55:44;101301.66;;;10.09;69.24
41254;BME280;26987;59.928;30.306;2023-04-28T07:58:12;101303.31;;;10.32;68.09
41254;BME280;26987;59.928;30.306;2023-04-28T08:00:40;101294.88;;;10.35;67.04
41254;BME280;26987;59.928;30.306;2023-04-28T08:03:08;101297.84;;;10.62;66.09
41254;BME280;26987;59.928;30.306;2023-04-28T08:05:37;101310.31;;;10.48;65.80
41254;BME280;26987;59.928;30.306;2023-04-28T08:08:05;101293.03;;;10.35;65.55
41254;BME280;26987;59.928;30.306;2023-04-28T08:10:33;101277.34;;;10.54;65.84
41254;BME280;26987;59.928;30.306;2023-04-28T08:13:02;101288.78;;;10.63;63.43
41254;BME280;26987;59.928;30.306;2023-04-28T08:15:29;101289.38;;;10.87;62.54
41254;BME280;26987;59.928;30.306;2023-04-28T08:17:57;101292.59;;;10.32;63.73
41254;BME280;26987;59.928;30.306;2023-04-28T08:20:25;101292.69;;;10.02;64.98
41254;BME280;26987;59.928;30.306;2023-04-28T08:22:54;101296.41;;;10.01;63.80
41254;BME280;26987;59.928;30.306;2023-04-28T08:25:23;101301.00;;;10.07;62.37
41254;BME280;26987;59.928;30.306;2023-04-28T08:27:51;101302.13;;;9.97;62.10
41254;BME280;26987;59.928;30.306;2023-04-28T08:30:22;101287.34;;;10.02;62.87
41254;BME280;26987;59.928;30.306;2023-04-28T08:32:50;101281.34;;;10.00;60.85
41254;BME280;26987;59.928;30.306;2023-04-28T08:35:18;101276.38;;;9.96;59.06
41254;BME280;26987;59.928;30.306;2023-04-28T08:37:46;101287.47;;;10.15;59.58
41254;BME280;26987;59.928;30.306;2023-04-28T08:40:15;101281.91;;;10.17;59.19
41254;BME280;26987;59.928;30.306;2023-04-28T08:42:43;101279.94;;;10.04;59.73
41254;BME280;26987;59.928;30.306;2023-04-28T08:45:13;101277.53;;;10.09;60.08
41254;BME280;26987;59.928;30.306;2023-04-28T08:47:42;101274.72;;;10.17;60.74
41254;BME280;26987;59.928;30.306;2023-04-28T08:50:13;101284.34;;;10.33;60.18
41254;BME280;26987;59.928;30.306;2023-04-28T08:52:41;101286.81;;;10.50;58.83
41254;BME280;26987;59.928;30.306;2023-04-28T08:55:11;101280.97;;;10.68;57.92
41254;BME280;26987;59.928;30.306;2023-04-28T08:57:43;101278.78;;;10.79;56.55
41254;BME280;26987;59.928;30.306;2023-04-28T09:00:12;101269.84;;;10.71;56.46
41254;BME280;26987;59.928;30.306;2023-04-28T09:02:41;101279.56;;;10.72;54.40
41254;BME280;26987;59.928;30.306;2023-04-28T09:05:10;101276.91;;;10.51;54.50
41254;BME280;26987;59.928;30.306;2023-04-28T09:07:38;101258.91;;;10.22;54.46
41254;BME280;26987;59.928;30.306;2023-04-28T09:10:17;101276.16;;;10.57;54.22
41254;BME280;26987;59.928;30.306;2023-04-28T09:12:45;101265.94;;;10.45;53.33
41254;BME280;26987;59.928;30.306;2023-04-28T09:15:27;101270.63;;;10.65;53.96
41254;BME280;26987;59.928;30.306;2023-04-28T09:17:57;101273.00;;;10.53;53.78
41254;BME280;26987;59.928;30.306;2023-04-28T09:20:26;101273.59;;;10.49;52.88
41254;BME280;26987;59.928;30.306;2023-04-28T09:22:55;101278.69;;;10.43;53.94
41254;BME280;26987;59.928;30.306;2023-04-28T09:25:38;101269.59;;;10.44;53.69
41254;BME280;26987;59.928;30.306;2023-04-28T09:28:18;101263.59;;;10.42;53.50
41254;BME280;26987;59.928;30.306;2023-04-28T09:30:46;101265.66;;;10.18;53.18
41254;BME280;26987;59.928;30.306;2023-04-28T09:33:16;101263.34;;;10.15;53.51
41254;BME280;26987;59.928;30.306;2023-04-28T09:35:44;101256.88;;;10.03;51.64
41254;BME280;26987;59.928;30.306;2023-04-28T09:38:13;101272.47;;;9.99;51.84
41254;BME280;26987;59.928;30.306;2023-04-28T09:40:52;101260.81;;;10.07;52.84
41254;BME280;26987;59.928;30.306;2023-04-28T09:43:24;101270.13;;;9.89;52.94
41254;BME280;26987;59.928;30.306;2023-04-28T09:45:52;101269.84;;;9.84;52.63
41254;BME280;26987;59.928;30.306;2023-04-28T09:48:32;101270.34;;;9.94;53.14
41254;BME280;26987;59.928;30.306;2023-04-28T09:51:01;101264.09;;;9.87;53.13
41254;BME280;26987;59.928;30.306;2023-04-28T09:53:30;101268.19;;;9.83;52.70
41254;BME280;26987;59.928;30.306;2023-04-28T09:56:02;101262.66;;;9.84;51.19
41254;BME280;26987;59.928;30.306;2023-04-28T09:58:30;101268.81;;;9.85;50.45
41254;BME280;26987;59.928;30.306;2023-04-28T10:00:59;101269.41;;;9.80;48.57
41254;BME280;26987;59.928;30.306;2023-04-28T10:03:29;101260.00;;;9.69;48.61
41254;BME280;26987;59.928;30.306;2023-04-28T10:05:59;101275.56;;;9.81;48.90
41254;BME280;26987;59.928;30.306;2023-04-28T10:08:28;101279.28;;;9.80;47.70
41254;BME280;26987;59.928;30.306;2023-04-28T10:10:56;101276.78;;;9.78;47.73
41254;BME280;26987;59.928;30.306;2023-04-28T10:13:24;101260.00;;;9.69;46.59
41254;BME280;26987;59.928;30.306;2023-04-28T10:15:52;101270.41;;;9.79;45.63
41254;BME280;26987;59.928;30.306;2023-04-28T10:18:22;101271.50;;;9.85;45.11
41254;BME280;26987;59.928;30.306;2023-04-28T10:20:54;101281.19;;;9.86;45.89
41254;BME280;26987;59.928;30.306;2023-04-28T10:23:52;101279.66;;;9.99;44.10
41254;BME280;26987;59.928;30.306;2023-04-28T10:29:15;101273.53;;;9.83;41.17
41254;BME280;26987;59.928;30.306;2023-04-28T10:34:44;101260.25;;;9.75;38.46
41254;BME280;26987;59.928;30.306;2023-04-28T10:37:12;101271.25;;;9.80;37.62
41254;BME280;26987;59.928;30.306;2023-04-28T10:43:02;101265.28;;;10.00;38.30
41254;BME280;26987;59.928;30.306;2023-04-28T10:45:58;101264.25;;;10.01;38.24
41254;BME280;26987;59.928;30.306;2023-04-28T10:48:51;101262.84;;;10.05;37.50
41254;BME280;26987;59.928;30.306;2023-04-28T10:51:21;101263.59;;;9.99;36.13
41254;BME280;26987;59.928;30.306;2023-04-28T10:54:17;101259.69;;;10.16;36.59
41254;BME280;26987;59.928;30.306;2023-04-28T11:00:26;101261.00;;;10.27;36.27
41254;BME280;26987;59.928;30.306;2023-04-28T11:02:54;101261.97;;;10.19;34.51
41254;BME280;26987;59.928;30.306;2023-04-28T11:05:22;101265.53;;;10.27;34.26
41254;BME280;26987;59.928;30.306;2023-04-28T11:11:21;101265.59;;;10.33;32.54
41254;BME280;26987;59.928;30.306;2023-04-28T11:13:52;101230.22;;;9.79;30.50
41254;BME280;26987;59.928;30.306;2023-04-28T11:16:23;101255.97;;;9.95;30.89
41254;BME280;26987;59.928;30.306;2023-04-28T11:19:01;101264.38;;;9.92;33.03
41254;BME280;26987;59.928;30.306;2023-04-28T11:21:32;101264.63;;;9.97;31.49
41254;BME280;26987;59.928;30.306;2023-04-28T11:24:07;101258.50;;;10.04;30.82
41254;BME280;26987;59.928;30.306;2023-04-28T11:26:37;101267.56;;;10.03;29.95
41254;BME280;26987;59.928;30.306;2023-04-28T11:29:05;101261.84;;;10.06;29.35
41254;BME280;26987;59.928;30.306;2023-04-28T11:31:34;101259.72;;;10.01;30.49
41254;BME280;26987;59.928;30.306;2023-04-28T11:34:04;101250.75;;;10.09;30.81
41254;BME280;26987;59.928;30.306;2023-04-28T11:36:33;101256.28;;;10.07;31.93
41254;BME280;26987;59.928;30.306;2023-04-28T11:39:02;101263.63;;;10.20;31.89
41254;BME280;26987;59.928;30.306;2023-04-28T11:41:33;101260.28;;;10.18;30.71
41254;BME280;26987;59.928;30.306;2023-04-28T11:44:09;101249.91;;;10.08;31.10
41254;BME280;26987;59.928;30.306;2023-04-28T11:46:45;101255.31;;;10.15;31.84
41254;BME280;26987;59.928;30.306;2023-04-28T11:49:16;101266.28;;;9.99;32.28
41254;BME280;26987;59.928;30.306;2023-04-28T11:51:44;101268.00;;;9.84;33.17
41254;BME280;26987;59.928;30.306;2023-04-28T11:54:19;101248.06;;;9.72;34.10
41254;BME280;26987;59.928;30.306;2023-04-28T11:56:47;101264.78;;;9.74;33.50
41254;BME280;26987;59.928;30.306;2023-04-28T11:59:15;101260.56;;;9.65;33.54
41254;BME280;26987;59.928;30.306;2023-04-28T12:01:48;101247.50;;;9.40;35.99
41254;BME280;26987;59.928;30.306;2023-04-28T12:04:27;101254.56;;;9.48;37.33
41254;BME280;26987;59.928;30.306;2023-04-28T12:07:00;101245.56;;;9.49;37.50
41254;BME280;26987;59.928;30.306;2023-04-28T12:09:28;101261.00;;;9.68;38.30
41254;BME280;26987;59.928;30.306;2023-04-28T12:11:59;101263.22;;;9.80;38.90
41254;BME280;26987;59.928;30.306;2023-04-28T12:14:28;101256.25;;;9.86;39.14
41254;BME280;26987;59.928;30.306;2023-04-28T12:17:00;101263.22;;;9.80;39.41
41254;BME280;26987;59.928;30.306;2023-04-28T12:19:28;101268.13;;;9.61;39.71
41254;BME280;26987;59.928;30.306;2023-04-28T12:22:00;101277.00;;;9.62;40.61
41254;BME280;26987;59.928;30.306;2023-04-28T12:24:28;101250.38;;;9.38;41.48
41254;BME280;26987;59.928;30.306;2023-04-28T12:27:16;101276.34;;;9.59;41.36
41254;BME280;26987;59.928;30.306;2023-04-28T12:29:47;101276.34;;;9.59;41.96
41254;BME280;26987;59.928;30.306;2023-04-28T12:32:16;101268.78;;;9.63;42.42
41254;BME280;26987;59.928;30.306;2023-04-28T12:34:45;101277.31;;;9.89;42.33
41254;BME280;26987;59.928;30.306;2023-04-28T12:37:15;101279.03;;;9.96;42.50
41254;BME280;26987;59.928;30.306;2023-04-28T12:39:43;101286.53;;;10.01;41.70
41254;BME280;26987;59.928;30.306;2023-04-28T12:42:11;101282.44;;;10.05;42.21
41254;BME280;26987;59.928;30.306;2023-04-28T12:44:38;101280.78;;;10.04;41.79
41254;BME280;26987;59.928;30.306;2023-04-28T12:47:08;101289.16;;;10.16;41.95
41254;BME280;26987;59.928;30.306;2023-04-28T12:49:38;101292.44;;;10.18;42.56
41254;BME280;26987;59.928;30.306;2023-04-28T12:52:06;101298.47;;;10.20;42.36
41254;BME280;26987;59.928;30.306;2023-04-28T12:54:34;101291.44;;;10.19;42.55
41254;BME280;26987;59.928;30.306;2023-04-28T12:57:03;101292.53;;;10.25;43.86
41254;BME280;26987;59.928;30.306;2023-04-28T12:59:31;101298.28;;;10.22;44.21
41254;BME280;26987;59.928;30.306;2023-04-28T13:01:59;101289.53;;;10.13;43.30
41254;BME280;26987;59.928;30.306;2023-04-28T13:04:27;101299.88;;;10.16;44.25
41254;BME280;26987;59.928;30.306;2023-04-28T13:06:56;101292.50;;;10.03;44.38
41254;BME280;26987;59.928;30.306;2023-04-28T13:09:24;101298.56;;;9.90;44.80
41254;BME280;26987;59.928;30.306;2023-04-28T13:11:52;101296.03;;;9.67;45.82
41254;BME280;26987;59.928;30.306;2023-04-28T13:14:21;101277.31;;;9.21;46.20